Gingelom, Belgium
Current Conditions -  °F | °C
As of 1:25 AM on Wednesday 26 Nov 2014 (Local Time) from EBBE Reporting Station
Overcast Overcast  
Wind Chill: 35°   Ceiling: 10000
Heat Index: 39°   Visibility: 6mi
Dew Point: 37°   Wind: 6mph
Humidity: 93%   Direction: 90°E
Pressure: 30"   Gusts: NA
Location:  50.75°N, 5.13°E
Report Text: EBBE 260025Z AUTO 09005KT 9999 BKN100/// OVC110/// 04/03 Q1016 BLU
Loading
Personal Weather Stations






























Interactive Weather Map New forecast layout! Learn more

10-Day Weather Forecast

Advertisements
Track Severe Weather on mobile